createdAt,value
2022-08-14T00:02:26.988Z,15.50
2022-08-14T00:04:55.726Z,15.40
2022-08-14T00:07:23.707Z,15.40
2022-08-14T00:09:55.510Z,15.40
2022-08-14T00:12:34.025Z,15.40
2022-08-14T00:15:10.915Z,15.40
2022-08-14T00:17:47.231Z,15.40
2022-08-14T00:20:23.523Z,15.40
2022-08-14T00:22:57.679Z,15.50
2022-08-14T00:25:41.652Z,15.40
2022-08-14T00:28:15.171Z,15.50
2022-08-14T00:30:46.787Z,15.50
2022-08-14T00:33:16.415Z,15.50
2022-08-14T00:36:35.887Z,15.60
2022-08-14T00:38:34.828Z,15.60
2022-08-14T00:41:05.069Z,15.70
2022-08-14T00:43:34.817Z,15.70
2022-08-14T00:46:08.051Z,15.70
2022-08-14T00:48:38.385Z,15.70
2022-08-14T00:51:08.803Z,15.70
2022-08-14T00:53:38.528Z,15.70
2022-08-14T00:56:08.627Z,15.80
2022-08-14T00:58:45.198Z,15.80
2022-08-14T01:01:14.549Z,15.80
2022-08-14T01:03:45.732Z,15.80
2022-08-14T01:06:21.227Z,15.80
2022-08-14T01:08:57.977Z,15.80
2022-08-14T01:11:31.525Z,15.90
2022-08-14T01:14:25.880Z,15.90
2022-08-14T01:16:55.665Z,15.90
2022-08-14T01:19:43.286Z,15.90
2022-08-14T01:22:13.316Z,15.80
2022-08-14T01:24:47.140Z,15.80
2022-08-14T01:27:18.053Z,15.90
2022-08-14T01:30:00.803Z,15.90
2022-08-14T01:32:45.246Z,15.90
2022-08-14T01:36:03.910Z,15.90
2022-08-14T01:38:09.304Z,15.90
2022-08-14T01:40:40.990Z,15.90
2022-08-14T01:43:14.246Z,15.90
2022-08-14T01:45:42.572Z,15.90
2022-08-14T01:48:20.847Z,15.90
2022-08-14T01:50:49.781Z,15.90
2022-08-14T01:53:20.147Z,15.90
2022-08-14T01:55:51.612Z,15.90
2022-08-14T01:58:28.939Z,15.90
2022-08-14T02:00:59.046Z,15.90
2022-08-14T02:03:31.301Z,15.90
2022-08-14T02:06:03.551Z,15.80
2022-08-14T02:08:53.300Z,15.80
2022-08-14T02:11:25.444Z,15.80
2022-08-14T02:13:59.599Z,15.80
2022-08-14T02:16:38.984Z,15.70
2022-08-14T02:19:10.452Z,15.70
2022-08-14T02:21:47.258Z,15.60
2022-08-14T02:24:40.406Z,15.60
2022-08-14T02:28:23.645Z,15.60
2022-08-14T02:30:02.019Z,15.50
2022-08-14T02:32:36.714Z,15.50
2022-08-14T02:35:16.734Z,15.50
2022-08-14T02:37:48.449Z,15.40
2022-08-14T02:40:20.595Z,15.40
2022-08-14T02:43:01.046Z,15.40
2022-08-14T02:45:38.784Z,15.40
2022-08-14T02:49:02.790Z,15.30
2022-08-14T02:51:02.594Z,15.30
2022-08-14T02:53:31.288Z,15.20
2022-08-14T02:56:10.091Z,15.10
2022-08-14T02:58:52.816Z,15.10
2022-08-14T03:01:26.207Z,15.00
2022-08-14T03:03:59.895Z,15.00
2022-08-14T03:06:34.650Z,14.90
2022-08-14T03:09:02.806Z,14.90
2022-08-14T03:11:35.074Z,14.90
2022-08-14T03:14:03.199Z,14.90
2022-08-14T03:16:35.714Z,14.80
2022-08-14T03:19:08.093Z,14.80
2022-08-14T03:21:40.868Z,14.80
2022-08-14T03:24:21.518Z,14.80
2022-08-14T03:26:57.667Z,14.80
2022-08-14T03:29:29.427Z,14.80
2022-08-14T03:31:58.878Z,14.80
2022-08-14T03:34:48.555Z,14.90
2022-08-14T03:37:28.953Z,14.90
2022-08-14T03:40:05.165Z,14.90
2022-08-14T03:42:45.504Z,14.90
2022-08-14T03:45:26.540Z,14.90
2022-08-14T03:48:04.578Z,14.90
2022-08-14T03:50:39.513Z,14.90
2022-08-14T03:53:07.535Z,14.90
2022-08-14T03:55:36.530Z,14.90
2022-08-14T03:58:09.961Z,14.90
2022-08-14T04:00:44.668Z,15.00
2022-08-14T04:03:19.758Z,15.00
2022-08-14T04:05:52.413Z,15.00
2022-08-14T04:08:29.601Z,15.10
2022-08-14T04:11:01.252Z,15.10
2022-08-14T04:13:34.007Z,15.20
2022-08-14T04:16:05.306Z,15.20
2022-08-14T04:18:39.691Z,15.20
2022-08-14T04:21:10.892Z,15.20
2022-08-14T04:23:39.882Z,15.30
2022-08-14T04:26:15.028Z,15.30
2022-08-14T04:29:06.718Z,15.30
2022-08-14T04:33:02.839Z,15.30
2022-08-14T04:34:30.815Z,15.30
2022-08-14T04:37:22.210Z,15.30
2022-08-14T04:40:11.594Z,15.20
2022-08-14T04:42:57.229Z,15.20
2022-08-14T04:45:32.889Z,15.20
2022-08-14T04:48:39.645Z,15.30
2022-08-14T04:51:06.691Z,15.30
2022-08-14T04:53:42.777Z,15.40
2022-08-14T04:56:31.029Z,15.40
2022-08-14T04:59:09.505Z,15.50
2022-08-14T05:01:45.241Z,15.50
2022-08-14T05:04:20.111Z,15.60
2022-08-14T05:06:53.678Z,15.70
2022-08-14T05:09:23.600Z,15.90
2022-08-14T05:11:51.853Z,16.00
2022-08-14T05:14:43.208Z,16.20
2022-08-14T05:17:12.227Z,16.20
2022-08-14T05:19:44.440Z,16.10
2022-08-14T05:22:28.560Z,16.10
2022-08-14T05:24:57.772Z,16.20
2022-08-14T05:27:42.093Z,16.50
2022-08-14T05:30:11.768Z,16.90
2022-08-14T05:32:49.069Z,17.40
2022-08-14T05:35:17.192Z,17.90
2022-08-14T05:37:57.428Z,18.50
2022-08-14T05:40:34.867Z,19.20
2022-08-14T05:43:03.178Z,19.80
2022-08-14T05:45:35.468Z,20.30
2022-08-14T05:48:09.542Z,20.60
2022-08-14T05:50:38.106Z,20.90
2022-08-14T05:53:06.044Z,21.20
2022-08-14T05:55:34.069Z,21.50
2022-08-14T05:58:10.720Z,21.60
2022-08-14T06:00:40.894Z,21.60
2022-08-14T06:03:12.368Z,21.60
2022-08-14T06:05:41.671Z,21.60
2022-08-14T06:08:31.283Z,21.70
2022-08-14T06:11:07.772Z,21.70
2022-08-14T06:13:44.779Z,21.60
2022-08-14T06:16:17.785Z,21.60
2022-08-14T06:18:52.340Z,21.70
2022-08-14T06:21:21.542Z,22.00
2022-08-14T06:23:50.521Z,22.20
2022-08-14T06:26:20.734Z,22.30
2022-08-14T06:28:52.439Z,22.50
2022-08-14T06:31:22.823Z,22.60
2022-08-14T06:35:03.149Z,22.70
2022-08-14T06:36:40.279Z,22.80
2022-08-14T06:39:10.185Z,22.80
2022-08-14T06:41:59.440Z,22.70
2022-08-14T06:44:30.742Z,22.70
2022-08-14T06:47:01.582Z,22.50
2022-08-14T06:49:31.059Z,22.50
2022-08-14T06:52:15.361Z,22.50
2022-08-14T06:54:44.811Z,22.60
2022-08-14T06:57:13.266Z,22.70
2022-08-14T06:59:42.150Z,22.90
2022-08-14T07:02:28.763Z,23.10
2022-08-14T07:05:20.880Z,23.40
2022-08-14T07:07:51.582Z,23.60
2022-08-14T07:10:22.207Z,23.70
2022-08-14T07:13:01.458Z,23.90
2022-08-14T07:15:33.835Z,24.00
2022-08-14T07:18:03.623Z,24.10
2022-08-14T07:20:34.408Z,24.30
2022-08-14T07:23:09.474Z,24.40
2022-08-14T07:25:48.758Z,24.60
2022-08-14T07:28:23.345Z,24.80
2022-08-14T07:30:52.308Z,25.10
2022-08-14T07:33:24.641Z,25.20
2022-08-14T07:36:00.297Z,25.40
2022-08-14T07:38:33.945Z,25.30
2022-08-14T07:41:11.771Z,25.40
2022-08-14T07:43:52.891Z,25.50
2022-08-14T07:46:28.351Z,25.50
2022-08-14T07:48:58.332Z,25.50
2022-08-14T07:51:34.195Z,25.70
2022-08-14T07:54:10.899Z,25.70
2022-08-14T07:56:47.007Z,25.80
2022-08-14T07:59:18.312Z,25.70
2022-08-14T08:01:48.131Z,25.70
2022-08-14T08:04:25.329Z,25.50
2022-08-14T08:06:56.707Z,25.40
2022-08-14T08:09:31.882Z,25.20
2022-08-14T08:12:05.009Z,25.40
2022-08-14T08:14:56.214Z,25.60
2022-08-14T08:17:28.297Z,25.70
2022-08-14T08:20:03.112Z,26.00
2022-08-14T08:22:32.427Z,26.10
2022-08-14T08:25:00.793Z,26.40
2022-08-14T08:27:28.826Z,26.60
2022-08-14T08:30:10.139Z,26.80
2022-08-14T08:32:42.089Z,27.10
2022-08-14T08:35:18.900Z,27.20
2022-08-14T08:37:48.586Z,27.20
2022-08-14T08:40:32.433Z,27.40
2022-08-14T08:43:01.000Z,27.50
2022-08-14T08:45:30.098Z,27.70
2022-08-14T08:47:58.561Z,27.90
2022-08-14T08:53:02.707Z,28.10
2022-08-14T08:55:34.205Z,28.30
2022-08-14T08:58:05.559Z,28.50
2022-08-14T09:00:49.107Z,28.70
2022-08-14T09:03:20.734Z,28.70
2022-08-14T09:05:54.374Z,28.90
2022-08-14T09:08:31.383Z,28.80
2022-08-14T09:11:02.882Z,28.90
2022-08-14T09:13:49.372Z,28.60
2022-08-14T09:16:22.149Z,28.40
2022-08-14T09:18:53.344Z,28.60
2022-08-14T09:21:24.230Z,28.90
2022-08-14T09:24:28.156Z,29.00
2022-08-14T09:26:49.507Z,28.80
2022-08-14T09:29:19.985Z,28.50
2022-08-14T09:31:57.723Z,28.50
2022-08-14T09:34:58.277Z,28.50
2022-08-14T09:37:47.674Z,28.60
2022-08-14T09:40:32.765Z,28.60
2022-08-14T09:43:14.843Z,28.80
2022-08-14T09:45:53.549Z,29.00
2022-08-14T09:48:30.049Z,29.00
2022-08-14T09:54:12.600Z,29.10
2022-08-14T09:56:32.813Z,29.10
2022-08-14T09:59:15.263Z,29.20
2022-08-14T10:01:52.511Z,29.40
2022-08-14T10:04:33.745Z,29.40
2022-08-14T10:07:03.491Z,29.40
2022-08-14T10:09:34.843Z,29.30
2022-08-14T10:12:06.866Z,29.50
2022-08-14T10:14:53.147Z,29.50
2022-08-14T10:17:26.778Z,29.80
2022-08-14T10:19:58.073Z,29.90
2022-08-14T10:23:21.873Z,30.10
2022-08-14T10:25:19.669Z,30.30
2022-08-14T10:27:59.596Z,30.00
2022-08-14T10:30:37.603Z,30.30
2022-08-14T10:33:07.216Z,30.50
2022-08-14T10:35:47.876Z,30.60
2022-08-14T10:38:26.687Z,30.40
2022-08-14T10:40:59.482Z,30.30
2022-08-14T10:43:31.745Z,30.30
2022-08-14T10:46:21.579Z,30.30
2022-08-14T10:49:00.188Z,30.20
2022-08-14T10:51:30.319Z,29.90
2022-08-14T10:54:26.049Z,29.90
2022-08-14T10:56:57.284Z,29.80
2022-08-14T10:59:30.730Z,29.80
2022-08-14T11:02:00.379Z,29.70
2022-08-14T11:04:30.511Z,29.70
2022-08-14T11:06:59.677Z,29.50
2022-08-14T11:09:31.292Z,29.50
2022-08-14T11:12:36.756Z,29.50
2022-08-14T11:14:59.858Z,29.50
2022-08-14T11:17:32.148Z,29.70
2022-08-14T11:20:02.771Z,29.80
2022-08-14T11:22:56.152Z,29.90
2022-08-14T11:25:23.554Z,29.90
2022-08-14T11:27:54.113Z,29.90
2022-08-14T11:30:50.887Z,30.10
2022-08-14T11:33:14.171Z,30.10
2022-08-14T11:35:49.726Z,29.90
2022-08-14T11:38:21.473Z,30.10
2022-08-14T11:40:49.725Z,30.10
2022-08-14T11:43:22.741Z,30.20
2022-08-14T11:45:59.216Z,30.40
2022-08-14T11:49:02.526Z,30.50
2022-08-14T11:51:23.980Z,30.70
2022-08-14T11:53:55.081Z,31.00
2022-08-14T11:56:25.753Z,30.90
2022-08-14T11:58:58.697Z,30.60
2022-08-14T12:01:31.134Z,30.70
2022-08-14T12:04:31.791Z,30.80
2022-08-14T12:07:00.756Z,30.90
2022-08-14T12:09:31.286Z,30.90
2022-08-14T12:11:59.975Z,31.20
2022-08-14T12:14:34.807Z,30.90
2022-08-14T12:17:12.106Z,31.00
2022-08-14T12:19:46.215Z,31.20
2022-08-14T12:22:29.904Z,31.30
2022-08-14T12:24:58.706Z,31.30
2022-08-14T12:27:41.755Z,31.20
2022-08-14T12:30:38.156Z,30.70
2022-08-14T12:33:30.835Z,30.70
2022-08-14T12:36:04.675Z,31.10
2022-08-14T12:38:38.250Z,31.40
2022-08-14T12:41:20.648Z,31.70
2022-08-14T12:43:53.495Z,31.90
2022-08-14T12:46:27.306Z,32.10
2022-08-14T12:48:59.059Z,32.10
2022-08-14T12:51:30.911Z,32.30
2022-08-14T12:54:00.394Z,32.40
2022-08-14T12:56:33.147Z,32.00
2022-08-14T12:59:04.952Z,31.90
2022-08-14T13:01:58.981Z,32.10
2022-08-14T13:04:25.311Z,32.20
2022-08-14T13:06:53.819Z,32.50
2022-08-14T13:09:27.892Z,32.60
2022-08-14T13:12:34.833Z,32.50
2022-08-14T13:14:57.691Z,32.40
2022-08-14T13:17:26.983Z,32.60
2022-08-14T13:20:00.022Z,32.70
2022-08-14T13:22:33.682Z,32.70
2022-08-14T13:25:07.565Z,32.70
2022-08-14T13:27:39.377Z,32.60
2022-08-14T13:30:14.432Z,32.50
2022-08-14T13:32:49.436Z,32.40
2022-08-14T13:35:20.549Z,31.70
2022-08-14T13:37:53.599Z,31.60
2022-08-14T13:40:26.482Z,31.60
2022-08-14T13:42:57.279Z,31.50
2022-08-14T13:45:34.125Z,31.80
2022-08-14T13:48:30.709Z,32.10
2022-08-14T13:51:07.992Z,32.40
2022-08-14T13:54:01.526Z,32.00
2022-08-14T13:56:40.182Z,32.00
2022-08-14T13:59:09.544Z,32.20
2022-08-14T14:01:43.823Z,32.20
2022-08-14T14:04:18.932Z,32.20
2022-08-14T14:06:51.370Z,31.90
2022-08-14T14:09:26.179Z,31.80
2022-08-14T14:12:01.330Z,31.60
2022-08-14T14:14:51.391Z,31.60
2022-08-14T14:17:24.460Z,31.20
2022-08-14T14:19:53.513Z,31.20
2022-08-14T14:22:35.614Z,30.90
2022-08-14T14:25:04.531Z,30.60
2022-08-14T14:27:41.686Z,30.40
2022-08-14T14:30:24.469Z,30.30
2022-08-14T14:33:04.364Z,30.20
2022-08-14T14:35:34.776Z,30.00
2022-08-14T14:38:14.497Z,29.70
2022-08-14T14:40:56.819Z,29.70
2022-08-14T14:43:30.012Z,29.70
2022-08-14T14:45:58.978Z,29.70
2022-08-14T14:48:31.194Z,29.90
2022-08-14T14:51:01.450Z,30.10
2022-08-14T14:53:39.117Z,30.40
2022-08-14T14:56:51.117Z,30.50
2022-08-14T14:58:57.573Z,30.50
2022-08-14T15:01:26.517Z,30.30
2022-08-14T15:03:56.346Z,30.20
2022-08-14T15:06:28.997Z,30.10
2022-08-14T15:09:00.380Z,30.00
2022-08-14T15:11:30.164Z,29.70
2022-08-14T15:14:00.541Z,29.60
2022-08-14T15:16:29.077Z,29.50
2022-08-14T15:18:57.252Z,29.50
2022-08-14T15:21:26.050Z,29.40
2022-08-14T15:23:55.608Z,29.20
2022-08-14T15:26:31.563Z,29.10
2022-08-14T15:29:04.817Z,29.00
2022-08-14T15:31:37.131Z,29.10
2022-08-14T15:34:46.111Z,29.20
2022-08-14T15:37:00.903Z,29.10
2022-08-14T15:39:35.899Z,29.10
2022-08-14T15:42:16.427Z,29.10
2022-08-14T15:44:58.217Z,28.90
2022-08-14T15:47:32.306Z,28.70
2022-08-14T15:50:04.459Z,28.50
2022-08-14T15:52:37.051Z,28.40
2022-08-14T15:55:08.745Z,28.30
2022-08-14T15:57:38.681Z,28.10
2022-08-14T16:00:43.573Z,28.10
2022-08-14T16:03:15.877Z,28.20
2022-08-14T16:05:46.052Z,28.20
2022-08-14T16:08:26.702Z,28.30
2022-08-14T16:10:59.778Z,28.20
2022-08-14T16:13:39.601Z,28.10
2022-08-14T16:16:49.014Z,27.90
2022-08-14T16:19:10.028Z,27.80
2022-08-14T16:21:40.842Z,27.70
2022-08-14T16:24:33.308Z,27.60
2022-08-14T16:27:03.463Z,27.70
2022-08-14T16:29:36.582Z,27.70
2022-08-14T16:32:33.177Z,27.70
2022-08-14T16:34:57.448Z,27.70
2022-08-14T16:37:30.436Z,27.60
2022-08-14T16:40:02.654Z,27.70
2022-08-14T16:42:39.994Z,27.60
2022-08-14T16:45:25.730Z,27.50
2022-08-14T16:47:53.848Z,27.40
2022-08-14T16:50:40.580Z,27.40
2022-08-14T16:53:10.708Z,27.40
2022-08-14T16:55:53.378Z,27.20
2022-08-14T16:58:30.170Z,27.20
2022-08-14T17:01:16.474Z,27.20
2022-08-14T17:03:55.448Z,27.20
2022-08-14T17:06:37.801Z,27.20
2022-08-14T17:09:07.392Z,27.20
2022-08-14T17:11:54.572Z,27.20
2022-08-14T17:14:25.459Z,27.20
2022-08-14T17:16:59.483Z,27.20
2022-08-14T17:19:28.003Z,26.90
2022-08-14T17:21:59.321Z,26.80
2022-08-14T17:24:57.128Z,26.70
2022-08-14T17:27:23.207Z,26.70
2022-08-14T17:29:57.539Z,26.70
2022-08-14T17:32:44.427Z,26.50
2022-08-14T17:35:57.781Z,26.40
2022-08-14T17:38:38.578Z,26.20
2022-08-14T17:41:32.637Z,26.20
2022-08-14T17:44:20.208Z,25.90
2022-08-14T17:46:57.096Z,25.70
2022-08-14T17:49:28.395Z,25.80
2022-08-14T17:52:07.792Z,25.70
2022-08-14T17:54:39.128Z,25.70
2022-08-14T17:57:14.694Z,25.60
2022-08-14T17:59:45.867Z,25.60
2022-08-14T18:02:19.090Z,25.50
2022-08-14T18:04:51.209Z,25.50
2022-08-14T18:08:00.480Z,25.40
2022-08-14T18:10:53.084Z,25.40
2022-08-14T18:13:03.571Z,25.40
2022-08-14T18:15:37.098Z,25.40
2022-08-14T18:18:08.821Z,25.30
2022-08-14T18:21:42.049Z,25.30
2022-08-14T18:23:28.284Z,25.20
2022-08-14T18:25:59.327Z,25.20
2022-08-14T18:28:49.014Z,25.10
2022-08-14T18:31:42.353Z,25.10
2022-08-14T18:34:31.185Z,25.10
2022-08-14T18:37:16.825Z,25.00
2022-08-14T18:40:02.001Z,24.80
2022-08-14T18:42:44.449Z,24.70
2022-08-14T18:45:15.590Z,24.60
2022-08-14T18:48:14.475Z,24.40
2022-08-14T18:50:52.634Z,24.20
2022-08-14T18:53:24.769Z,24.00
2022-08-14T18:55:56.088Z,23.90
2022-08-14T18:58:33.885Z,23.70
2022-08-14T19:01:04.273Z,23.60
2022-08-14T19:03:55.078Z,23.50
2022-08-14T19:06:44.750Z,23.30
2022-08-14T19:09:50.974Z,23.10
2022-08-14T19:12:52.479Z,22.90
2022-08-14T19:15:25.991Z,22.60
2022-08-14T19:18:14.585Z,22.50
2022-08-14T19:20:48.271Z,22.40
2022-08-14T19:23:19.467Z,22.20
2022-08-14T19:25:56.573Z,22.10
2022-08-14T19:28:27.440Z,22.00
2022-08-14T19:31:42.398Z,21.90
2022-08-14T19:34:37.233Z,21.80
2022-08-14T19:37:08.858Z,21.70
2022-08-14T19:39:53.842Z,21.60
2022-08-14T19:42:28.509Z,21.50
2022-08-14T19:45:00.813Z,21.40
2022-08-14T19:47:41.333Z,21.30
2022-08-14T19:50:38.671Z,21.30
2022-08-14T19:53:10.738Z,21.20
2022-08-14T19:55:45.613Z,21.10
2022-08-14T19:58:14.125Z,21.00
2022-08-14T20:00:52.386Z,20.90
2022-08-14T20:03:24.026Z,20.80
2022-08-14T20:06:00.548Z,20.70
2022-08-14T20:09:05.058Z,20.60
2022-08-14T20:11:43.356Z,20.60
2022-08-14T20:14:22.873Z,20.50
2022-08-14T20:16:54.628Z,20.40
2022-08-14T20:19:28.867Z,20.30
2022-08-14T20:22:34.651Z,20.20
2022-08-14T20:24:54.118Z,20.20
2022-08-14T20:27:33.417Z,20.20
2022-08-14T20:30:34.020Z,20.10
2022-08-14T20:33:07.661Z,20.10
2022-08-14T20:35:43.226Z,20.10
2022-08-14T20:38:30.855Z,20.20
2022-08-14T20:41:02.070Z,20.10
2022-08-14T20:43:55.334Z,20.10
2022-08-14T20:46:29.389Z,20.10
2022-08-14T20:49:00.690Z,20.10
2022-08-14T20:51:43.522Z,20.10
2022-08-14T20:54:34.519Z,20.00
2022-08-14T20:57:09.173Z,19.90
2022-08-14T20:59:43.253Z,19.90
2022-08-14T21:02:29.652Z,19.80
2022-08-14T21:05:01.089Z,19.70
2022-08-14T21:07:36.714Z,19.80
2022-08-14T21:10:35.804Z,19.70
2022-08-14T21:13:26.005Z,19.70
2022-08-14T21:15:56.856Z,19.70
2022-08-14T21:18:30.349Z,19.80
2022-08-14T21:21:04.661Z,19.80
2022-08-14T21:23:37.239Z,19.80
2022-08-14T21:26:51.152Z,19.80
2022-08-14T21:29:14.526Z,19.80
2022-08-14T21:31:55.363Z,19.80
2022-08-14T21:34:27.439Z,19.70
2022-08-14T21:37:08.895Z,19.70
2022-08-14T21:39:37.559Z,19.60
2022-08-14T21:42:06.828Z,19.60
2022-08-14T21:44:43.623Z,19.50
2022-08-14T21:47:16.619Z,19.50
2022-08-14T21:49:48.080Z,19.40
2022-08-14T21:52:49.471Z,19.40
2022-08-14T21:55:12.414Z,19.40
2022-08-14T21:58:46.390Z,19.40
2022-08-14T22:00:39.680Z,19.30
2022-08-14T22:03:17.242Z,19.30
2022-08-14T22:05:50.480Z,19.20
2022-08-14T22:08:27.060Z,19.10
2022-08-14T22:10:56.328Z,19.10
2022-08-14T22:13:32.528Z,19.00
2022-08-14T22:16:02.068Z,19.00
2022-08-14T22:18:32.212Z,18.90
2022-08-14T22:21:05.606Z,18.80
2022-08-14T22:23:35.425Z,18.80
2022-08-14T22:26:03.456Z,18.70
2022-08-14T22:28:31.822Z,18.80
2022-08-14T22:31:02.369Z,18.80
2022-08-14T22:33:31.702Z,18.70
2022-08-14T22:36:00.647Z,18.70
2022-08-14T22:38:35.366Z,18.70
2022-08-14T22:41:21.160Z,18.70
2022-08-14T22:43:59.227Z,18.60
2022-08-14T22:46:27.492Z,18.60
2022-08-14T22:48:57.384Z,18.60
2022-08-14T22:51:27.678Z,18.50
2022-08-14T22:53:59.107Z,18.60
2022-08-14T22:56:30.233Z,18.60
2022-08-14T22:59:00.740Z,18.60
2022-08-14T23:01:56.045Z,18.60
2022-08-14T23:04:34.812Z,18.60
2022-08-14T23:07:21.883Z,18.60
2022-08-14T23:09:56.498Z,18.60
2022-08-14T23:12:29.277Z,18.70
2022-08-14T23:14:59.265Z,18.70
2022-08-14T23:17:39.200Z,18.70
2022-08-14T23:20:19.373Z,18.80
2022-08-14T23:22:51.140Z,18.80
2022-08-14T23:25:50.014Z,18.80
2022-08-14T23:28:34.908Z,18.80
2022-08-14T23:31:02.802Z,18.80
2022-08-14T23:33:34.805Z,18.80
2022-08-14T23:36:04.609Z,18.90
2022-08-14T23:38:53.582Z,18.90
2022-08-14T23:41:23.256Z,18.90
2022-08-14T23:43:54.559Z,18.90
2022-08-14T23:46:34.631Z,18.80
2022-08-14T23:49:03.103Z,18.80
2022-08-14T23:51:36.651Z,18.70
2022-08-14T23:54:48.944Z,18.70
2022-08-14T23:57:00.231Z,18.70
2022-08-14T23:59:32.098Z,18.70
